EmailTwitter


Observations de surface / France / LFBD (07510)

Régions: Québec | Canada | États-Unis | Europe | France | UK | Ailleurs
Station
Affichage
Infos & localisation pour LFBD (07510) | Aide pour décoder les METARs

Observations prises le 2020-02-17 à 05H30 UTC à BORDEAUX/MERIGNA, FR (LFBD)

Etat du ciel: couvert.

Obstacle(s) à la visibilité: faible bruine.

Température: 10.0 Celsius

Point de rosée: 8.0 Celsius

Humidité relative: 87%

Vents: Nord-nord-ouest à 11 km/h ou 6 noeuds.

Pression au niveau moyen de la mer: 102.20 kilopascals.

Visibilité horizontale: 5.59 milles terrestres ou 8.95 kilomètres.

Hauteur du plafond: 945 mètres ( 3100 pieds ).

Observation METAR:

LFBD 170530Z AUTO 34006KT 9000 -DZ FEW019 SCT024 OVC031 10/08 Q1022 TEMPO 3000

RA BKN007=